sensor_id;sensor_type;location;lat;lon;timestamp;pressure;altitude;pressure_sealevel;temperature;humidity
76847;BME280;65813;49.546;8.644;2023-04-24T04:15:35;99582.22;;;10.26;81.79
76847;BME280;65813;49.546;8.644;2023-04-24T04:19:36;99594.13;;;10.11;80.04
76847;BME280;65813;49.546;8.644;2023-04-24T04:23:37;99585.47;;;10.30;79.66
76847;BME280;65813;49.546;8.644;2023-04-24T04:27:37;99596.22;;;9.96;80.10
76847;BME280;65813;49.546;8.644;2023-04-24T04:31:40;99607.41;;;9.90;79.84
76847;BME280;65813;49.546;8.644;2023-04-24T04:35:41;99608.25;;;10.23;78.56
76847;BME280;65813;49.546;8.644;2023-04-24T04:39:41;99614.28;;;10.25;77.46
76847;BME280;65813;49.546;8.644;2023-04-24T04:43:41;99615.53;;;9.89;77.65
76847;BME280;65813;49.546;8.644;2023-04-24T04:47:42;99596.16;;;9.55;77.22
76847;BME280;65813;49.546;8.644;2023-04-24T04:51:43;99617.88;;;9.71;77.18
76847;BME280;65813;49.546;8.644;2023-04-24T04:55:43;99614.63;;;9.68;77.16
76847;BME280;65813;49.546;8.644;2023-04-24T04:59:43;99619.59;;;9.61;78.10
76847;BME280;65813;49.546;8.644;2023-04-24T05:03:44;99622.75;;;9.55;78.04
76847;BME280;65813;49.546;8.644;2023-04-24T05:07:44;99633.38;;;9.55;78.40
76847;BME280;65813;49.546;8.644;2023-04-24T05:11:45;99620.38;;;9.73;76.99
76847;BME280;65813;49.546;8.644;2023-04-24T05:15:45;99640.41;;;9.88;77.14
76847;BME280;65813;49.546;8.644;2023-04-24T05:19:49;99629.50;;;9.59;78.52
76847;BME280;65813;49.546;8.644;2023-04-24T05:23:49;99664.63;;;9.74;79.56
76847;BME280;65813;49.546;8.644;2023-04-24T05:27:50;99657.19;;;9.99;77.98
76847;BME280;65813;49.546;8.644;2023-04-24T05:31:50;99658.88;;;10.00;77.98
76847;BME280;65813;49.546;8.644;2023-04-24T05:35:50;99662.31;;;10.23;76.65
76847;BME280;65813;49.546;8.644;2023-04-24T05:39:51;99665.00;;;10.44;76.36
76847;BME280;65813;49.546;8.644;2023-04-24T05:43:51;99666.03;;;10.32;75.36
76847;BME280;65813;49.546;8.644;2023-04-24T05:47:52;99664.41;;;10.20;75.25
76847;BME280;65813;49.546;8.644;2023-04-24T05:51:52;99669.00;;;10.18;75.35
76847;BME280;65813;49.546;8.644;2023-04-24T05:55:53;99688.56;;;10.48;75.48
76847;BME280;65813;49.546;8.644;2023-04-24T05:59:53;99690.72;;;10.34;75.34
76847;BME280;65813;49.546;8.644;2023-04-24T06:03:53;99692.47;;;10.44;76.40
76847;BME280;65813;49.546;8.644;2023-04-24T06:07:54;99704.09;;;10.64;76.39
76847;BME280;65813;49.546;8.644;2023-04-24T06:11:54;99680.84;;;10.66;75.03
76847;BME280;65813;49.546;8.644;2023-04-24T06:15:54;99695.78;;;10.78;76.31
76847;BME280;65813;49.546;8.644;2023-04-24T06:19:55;99703.06;;;10.76;76.09
76847;BME280;65813;49.546;8.644;2023-04-24T06:23:55;99714.97;;;10.72;75.33
76847;BME280;65813;49.546;8.644;2023-04-24T06:27:56;99715.97;;;10.39;74.50
76847;BME280;65813;49.546;8.644;2023-04-24T06:31:57;99717.34;;;10.34;73.17
76847;BME280;65813;49.546;8.644;2023-04-24T06:35:57;99709.47;;;10.32;73.20
76847;BME280;65813;49.546;8.644;2023-04-24T06:39:57;99719.25;;;10.32;74.14
76847;BME280;65813;49.546;8.644;2023-04-24T06:43:58;99723.31;;;10.15;74.70
76847;BME280;65813;49.546;8.644;2023-04-24T06:47:58;99721.50;;;10.04;74.93
76847;BME280;65813;49.546;8.644;2023-04-24T06:51:58;99739.19;;;10.17;75.34
76847;BME280;65813;49.546;8.644;2023-04-24T06:55:58;99728.91;;;9.90;75.86
76847;BME280;65813;49.546;8.644;2023-04-24T06:59:59;99740.88;;;10.06;76.49
76847;BME280;65813;49.546;8.644;2023-04-24T07:03:59;99737.63;;;10.03;77.39
76847;BME280;65813;49.546;8.644;2023-04-24T07:08:00;99731.97;;;9.85;78.14
76847;BME280;65813;49.546;8.644;2023-04-24T07:12:00;99725.88;;;9.94;76.74
76847;BME280;65813;49.546;8.644;2023-04-24T07:16:00;99743.75;;;10.03;76.81
76847;BME280;65813;49.546;8.644;2023-04-24T07:20:01;99744.75;;;9.91;75.49
76847;BME280;65813;49.546;8.644;2023-04-24T07:24:01;99751.34;;;9.65;76.09
76847;BME280;65813;49.546;8.644;2023-04-24T07:28:01;99777.03;;;9.87;75.58
76847;BME280;65813;49.546;8.644;2023-04-24T07:32:02;99772.41;;;10.22;74.17
76847;BME280;65813;49.546;8.644;2023-04-24T07:36:03;99769.03;;;10.52;72.55
76847;BME280;65813;49.546;8.644;2023-04-24T07:40:04;99764.66;;;10.30;71.27
76847;BME280;65813;49.546;8.644;2023-04-24T07:44:07;99750.75;;;10.27;71.53
76847;BME280;65813;49.546;8.644;2023-04-24T07:48:08;99754.13;;;10.29;71.46
76847;BME280;65813;49.546;8.644;2023-04-24T07:52:09;99750.03;;;10.25;71.80
76847;BME280;65813;49.546;8.644;2023-04-24T07:56:09;99767.25;;;10.41;69.25
76847;BME280;65813;49.546;8.644;2023-04-24T08:00:10;99759.50;;;10.49;69.53
76847;BME280;65813;49.546;8.644;2023-04-24T08:04:10;99779.09;;;10.48;67.90
76847;BME280;65813;49.546;8.644;2023-04-24T08:08:11;99773.56;;;10.72;68.36
76847;BME280;65813;49.546;8.644;2023-04-24T08:12:11;99784.78;;;10.76;68.64
76847;BME280;65813;49.546;8.644;2023-04-24T08:16:12;99796.09;;;10.68;69.34
76847;BME280;65813;49.546;8.644;2023-04-24T08:20:12;99801.69;;;10.65;68.88
76847;BME280;65813;49.546;8.644;2023-04-24T08:24:15;99799.22;;;10.73;66.64
76847;BME280;65813;49.546;8.644;2023-04-24T08:28:16;99791.56;;;10.80;63.36
76847;BME280;65813;49.546;8.644;2023-04-24T08:32:20;99795.41;;;10.87;66.77
76847;BME280;65813;49.546;8.644;2023-04-24T08:36:20;99806.53;;;10.92;66.53
76847;BME280;65813;49.546;8.644;2023-04-24T08:40:27;99805.19;;;10.86;64.29
76847;BME280;65813;49.546;8.644;2023-04-24T08:44:29;99816.28;;;11.02;61.79
76847;BME280;65813;49.546;8.644;2023-04-24T08:48:30;99824.72;;;11.07;64.89
76847;BME280;65813;49.546;8.644;2023-04-24T08:52:35;99832.66;;;11.19;64.09
76847;BME280;65813;49.546;8.644;2023-04-24T08:56:36;99838.09;;;11.38;65.68
76847;BME280;65813;49.546;8.644;2023-04-24T09:00:40;99842.63;;;11.37;64.61
76847;BME280;65813;49.546;8.644;2023-04-24T09:04:47;99838.78;;;11.30;62.45
76847;BME280;65813;49.546;8.644;2023-04-24T09:08:49;99846.47;;;11.24;62.70
76847;BME280;65813;49.546;8.644;2023-04-24T09:12:53;99841.03;;;11.14;60.66
76847;BME280;65813;49.546;8.644;2023-04-24T09:16:54;99842.53;;;11.28;63.17
76847;BME280;65813;49.546;8.644;2023-04-24T09:21:02;99852.97;;;11.31;64.25
76847;BME280;65813;49.546;8.644;2023-04-24T09:25:05;99843.44;;;10.96;64.42
76847;BME280;65813;49.546;8.644;2023-04-24T09:29:06;99858.19;;;11.00;66.20
76847;BME280;65813;49.546;8.644;2023-04-24T09:33:12;99870.84;;;10.87;66.32
76847;BME280;65813;49.546;8.644;2023-04-24T09:37:27;99874.09;;;10.91;65.37
76847;BME280;65813;49.546;8.644;2023-04-24T09:41:28;99868.06;;;10.89;63.95
76847;BME280;65813;49.546;8.644;2023-04-24T09:45:38;99877.91;;;11.09;66.12
76847;BME280;65813;49.546;8.644;2023-04-24T09:49:39;99879.81;;;11.18;63.67
76847;BME280;65813;49.546;8.644;2023-04-24T09:53:46;99893.97;;;11.19;64.31
76847;BME280;65813;49.546;8.644;2023-04-24T09:57:47;99897.28;;;11.11;64.40
76847;BME280;65813;49.546;8.644;2023-04-24T10:01:47;99882.50;;;11.07;65.52
76847;BME280;65813;49.546;8.644;2023-04-24T10:05:54;99890.31;;;10.99;62.88
76847;BME280;65813;49.546;8.644;2023-04-24T10:09:55;99894.66;;;11.00;64.46
76847;BME280;65813;49.546;8.644;2023-04-24T10:13:56;99907.88;;;11.01;62.31
76847;BME280;65813;49.546;8.644;2023-04-24T10:17:58;99907.38;;;10.96;62.58
76847;BME280;65813;49.546;8.644;2023-04-24T10:21:59;99914.84;;;11.13;63.10
76847;BME280;65813;49.546;8.644;2023-04-24T10:26:00;99917.53;;;11.34;65.54
76847;BME280;65813;49.546;8.644;2023-04-24T10:30:03;99910.81;;;11.19;62.89
76847;BME280;65813;49.546;8.644;2023-04-24T10:34:08;99923.09;;;11.10;63.67
76847;BME280;65813;49.546;8.644;2023-04-24T10:38:12;99921.50;;;11.40;62.90
76847;BME280;65813;49.546;8.644;2023-04-24T10:42:14;99938.97;;;12.06;61.22
76847;BME280;65813;49.546;8.644;2023-04-24T10:46:21;99912.34;;;12.35;61.89
76847;BME280;65813;49.546;8.644;2023-04-24T10:50:22;99932.94;;;12.13;60.47
76847;BME280;65813;49.546;8.644;2023-04-24T10:58:24;99949.31;;;11.58;62.47
76847;BME280;65813;49.546;8.644;2023-04-24T11:02:36;99941.72;;;11.42;63.79
76847;BME280;65813;49.546;8.644;2023-04-24T11:06:40;99938.78;;;11.25;62.37
76847;BME280;65813;49.546;8.644;2023-04-24T11:10:45;99941.59;;;11.23;63.58
76847;BME280;65813;49.546;8.644;2023-04-24T11:23:14;99946.41;;;11.29;64.17
76847;BME280;65813;49.546;8.644;2023-04-24T11:27:18;99961.97;;;11.45;65.18
76847;BME280;65813;49.546;8.644;2023-04-24T11:31:39;99956.41;;;11.48;64.23
76847;BME280;65813;49.546;8.644;2023-04-24T11:35:42;99957.22;;;11.48;62.48
76847;BME280;65813;49.546;8.644;2023-04-24T11:39:43;99954.75;;;11.36;64.11
76847;BME280;65813;49.546;8.644;2023-04-24T11:43:43;99954.69;;;11.47;63.05
76847;BME280;65813;49.546;8.644;2023-04-24T11:47:45;99956.41;;;11.69;63.47
76847;BME280;65813;49.546;8.644;2023-04-24T11:51:45;99964.63;;;11.77;62.50
76847;BME280;65813;49.546;8.644;2023-04-24T11:55:46;99961.84;;;11.67;64.77
76847;BME280;65813;49.546;8.644;2023-04-24T11:59:46;99971.19;;;11.73;60.91
76847;BME280;65813;49.546;8.644;2023-04-24T12:03:48;99971.28;;;11.82;62.58
76847;BME280;65813;49.546;8.644;2023-04-24T12:07:49;99968.84;;;11.79;59.99
76847;BME280;65813;49.546;8.644;2023-04-24T12:11:56;99957.94;;;11.82;60.56
76847;BME280;65813;49.546;8.644;2023-04-24T12:16:01;99957.97;;;12.12;61.19
76847;BME280;65813;49.546;8.644;2023-04-24T12:20:07;99951.25;;;12.28;56.80
76847;BME280;65813;49.546;8.644;2023-04-24T12:24:08;99961.94;;;12.58;57.87
76847;BME280;65813;49.546;8.644;2023-04-24T12:28:11;99959.84;;;12.61;56.43
76847;BME280;65813;49.546;8.644;2023-04-24T12:32:16;99952.34;;;12.46;58.30
76847;BME280;65813;49.546;8.644;2023-04-24T12:36:16;99964.53;;;12.39;56.82
76847;BME280;65813;49.546;8.644;2023-04-24T12:40:18;99964.47;;;12.20;57.92
76847;BME280;65813;49.546;8.644;2023-04-24T12:44:18;99960.97;;;11.98;59.16
76847;BME280;65813;49.546;8.644;2023-04-24T12:48:19;99972.34;;;12.00;60.71
76847;BME280;65813;49.546;8.644;2023-04-24T12:52:23;99968.50;;;11.93;59.71
76847;BME280;65813;49.546;8.644;2023-04-24T12:56:24;99971.13;;;11.84;57.21
76847;BME280;65813;49.546;8.644;2023-04-24T13:00:24;99970.22;;;11.94;58.46
76847;BME280;65813;49.546;8.644;2023-04-24T13:04:24;99961.63;;;11.91;57.48
76847;BME280;65813;49.546;8.644;2023-04-24T13:08:25;99955.06;;;11.95;57.22
76847;BME280;65813;49.546;8.644;2023-04-24T13:12:25;99971.66;;;11.98;58.60
76847;BME280;65813;49.546;8.644;2023-04-24T13:16:26;99969.25;;;11.95;57.98
76847;BME280;65813;49.546;8.644;2023-04-24T13:20:26;99977.00;;;11.98;60.30
76847;BME280;65813;49.546;8.644;2023-04-24T13:24:27;99967.44;;;11.96;57.64
76847;BME280;65813;49.546;8.644;2023-04-24T13:28:27;99971.84;;;12.06;59.10
76847;BME280;65813;49.546;8.644;2023-04-24T13:32:30;99978.47;;;12.12;59.45
76847;BME280;65813;49.546;8.644;2023-04-24T13:36:30;99973.38;;;12.30;58.34
76847;BME280;65813;49.546;8.644;2023-04-24T13:40:32;99965.03;;;12.63;56.66
76847;BME280;65813;49.546;8.644;2023-04-24T13:44:32;99957.78;;;12.75;56.84
76847;BME280;65813;49.546;8.644;2023-04-24T13:48:32;99968.19;;;12.78;57.48
76847;BME280;65813;49.546;8.644;2023-04-24T13:52:33;99968.44;;;12.65;56.30
76847;BME280;65813;49.546;8.644;2023-04-24T13:56:33;99960.00;;;12.70;55.15
76847;BME280;65813;49.546;8.644;2023-04-24T14:00:34;99962.63;;;12.50;53.71
76847;BME280;65813;49.546;8.644;2023-04-24T14:04:34;99961.47;;;12.43;53.39
76847;BME280;65813;49.546;8.644;2023-04-24T14:08:35;99973.88;;;12.54;57.54
76847;BME280;65813;49.546;8.644;2023-04-24T14:12:35;99971.06;;;12.55;55.80
76847;BME280;65813;49.546;8.644;2023-04-24T14:16:36;99982.97;;;12.42;55.35
76847;BME280;65813;49.546;8.644;2023-04-24T14:20:36;99975.88;;;12.31;53.91
76847;BME280;65813;49.546;8.644;2023-04-24T14:24:37;99987.91;;;12.46;56.73
76847;BME280;65813;49.546;8.644;2023-04-24T14:28:37;99980.28;;;12.42;57.06
76847;BME280;65813;49.546;8.644;2023-04-24T14:32:38;99975.38;;;12.37;54.59
76847;BME280;65813;49.546;8.644;2023-04-24T14:36:42;99960.13;;;12.28;55.28
76847;BME280;65813;49.546;8.644;2023-04-24T14:40:43;99948.44;;;12.20;55.53
76847;BME280;65813;49.546;8.644;2023-04-24T14:44:44;99940.88;;;12.34;57.43
76847;BME280;65813;49.546;8.644;2023-04-24T14:48:44;99935.16;;;12.79;56.12
76847;BME280;65813;49.546;8.644;2023-04-24T14:52:51;99919.00;;;13.38;54.02
76847;BME280;65813;49.546;8.644;2023-04-24T14:57:21;99964.75;;;13.73;52.28
76847;BME280;65813;49.546;8.644;2023-04-24T15:01:52;99932.94;;;13.41;56.58
76847;BME280;65813;49.546;8.644;2023-04-24T15:10:46;99975.09;;;12.80;57.08
76847;BME280;65813;49.546;8.644;2023-04-24T16:53:45;99971.66;;;12.29;60.29
76847;BME280;65813;49.546;8.644;2023-04-24T16:57:48;99970.22;;;12.55;60.33
76847;BME280;65813;49.546;8.644;2023-04-24T17:02:13;99958.03;;;12.32;59.69
76847;BME280;65813;49.546;8.644;2023-04-24T17:06:33;99973.28;;;12.41;59.24
76847;BME280;65813;49.546;8.644;2023-04-24T17:10:34;99968.44;;;12.35;59.11
76847;BME280;65813;49.546;8.644;2023-04-24T17:14:43;99973.72;;;12.15;59.36
76847;BME280;65813;49.546;8.644;2023-04-24T17:18:44;99969.19;;;12.06;60.00
76847;BME280;65813;49.546;8.644;2023-04-24T17:22:44;99961.88;;;11.88;60.96
76847;BME280;65813;49.546;8.644;2023-04-24T17:26:45;99971.13;;;11.84;61.87
76847;BME280;65813;49.546;8.644;2023-04-24T17:30:45;99947.56;;;11.68;61.05
76847;BME280;65813;49.546;8.644;2023-04-24T17:34:46;99964.50;;;11.78;59.35
76847;BME280;65813;49.546;8.644;2023-04-24T17:38:48;99954.47;;;11.71;60.22
76847;BME280;65813;49.546;8.644;2023-04-24T17:42:48;99971.97;;;11.84;60.08
76847;BME280;65813;49.546;8.644;2023-04-24T17:46:48;99985.91;;;11.88;61.68
76847;BME280;65813;49.546;8.644;2023-04-24T17:50:49;99955.94;;;11.63;60.21
76847;BME280;65813;49.546;8.644;2023-04-24T17:54:49;99979.84;;;11.65;60.32
76847;BME280;65813;49.546;8.644;2023-04-24T17:58:50;99976.63;;;11.82;61.55
76847;BME280;65813;49.546;8.644;2023-04-24T18:02:51;99974.84;;;11.72;59.95
76847;BME280;65813;49.546;8.644;2023-04-24T18:06:53;99977.84;;;11.78;61.22
76847;BME280;65813;49.546;8.644;2023-04-24T18:10:53;99983.31;;;11.77;61.23
76847;BME280;65813;49.546;8.644;2023-04-24T18:14:54;99996.53;;;11.78;61.76
76847;BME280;65813;49.546;8.644;2023-04-24T18:18:55;100007.41;;;11.54;63.32
76847;BME280;65813;49.546;8.644;2023-04-24T18:22:55;99980.59;;;11.24;64.01
76847;BME280;65813;49.546;8.644;2023-04-24T18:26:55;100017.25;;;11.43;64.88
76847;BME280;65813;49.546;8.644;2023-04-24T18:30:57;100008.34;;;11.33;65.90
76847;BME280;65813;49.546;8.644;2023-04-24T18:34:58;100001.38;;;11.41;65.77
76847;BME280;65813;49.546;8.644;2023-04-24T18:38:58;100015.56;;;11.42;66.05
76847;BME280;65813;49.546;8.644;2023-04-24T18:42:59;100011.78;;;11.24;66.62
76847;BME280;65813;49.546;8.644;2023-04-24T18:46:59;100032.06;;;11.36;66.96
76847;BME280;65813;49.546;8.644;2023-04-24T18:51:00;100031.50;;;11.21;67.68
76847;BME280;65813;49.546;8.644;2023-04-24T18:55:00;100031.06;;;11.16;69.16
76847;BME280;65813;49.546;8.644;2023-04-24T18:59:02;100035.19;;;11.09;68.96
76847;BME280;65813;49.546;8.644;2023-04-24T19:03:03;100042.81;;;11.13;68.47
76847;BME280;65813;49.546;8.644;2023-04-24T19:07:03;100049.13;;;11.01;67.53
76847;BME280;65813;49.546;8.644;2023-04-24T19:11:04;100046.34;;;11.03;68.30
76847;BME280;65813;49.546;8.644;2023-04-24T19:15:05;100043.44;;;10.95;69.43
76847;BME280;65813;49.546;8.644;2023-04-24T19:19:05;100049.75;;;10.94;69.47
76847;BME280;65813;49.546;8.644;2023-04-24T19:23:06;100055.47;;;10.78;70.67
76847;BME280;65813;49.546;8.644;2023-04-24T19:27:06;100046.47;;;10.90;69.95
76847;BME280;65813;49.546;8.644;2023-04-24T19:31:07;100037.66;;;10.79;69.77
76847;BME280;65813;49.546;8.644;2023-04-24T19:35:07;100066.22;;;10.88;71.15
76847;BME280;65813;49.546;8.644;2023-04-24T19:39:08;100062.00;;;10.85;69.93
76847;BME280;65813;49.546;8.644;2023-04-24T19:43:08;100052.78;;;10.89;69.74
76847;BME280;65813;49.546;8.644;2023-04-24T19:47:08;100064.66;;;10.85;70.01
76847;BME280;65813;49.546;8.644;2023-04-24T19:51:09;100054.72;;;10.98;69.10
76847;BME280;65813;49.546;8.644;2023-04-24T19:55:09;100056.66;;;10.85;69.10
76847;BME280;65813;49.546;8.644;2023-04-24T19:59:10;100051.94;;;10.78;68.67
76847;BME280;65813;49.546;8.644;2023-04-24T20:03:10;100054.47;;;10.79;68.37
76847;BME280;65813;49.546;8.644;2023-04-24T20:07:11;100062.25;;;10.82;67.70
76847;BME280;65813;49.546;8.644;2023-04-24T20:11:12;100058.34;;;10.64;68.63
76847;BME280;65813;49.546;8.644;2023-04-24T20:15:13;100063.56;;;10.54;69.33
76847;BME280;65813;49.546;8.644;2023-04-24T20:19:14;100074.59;;;10.72;69.52
76847;BME280;65813;49.546;8.644;2023-04-24T20:23:14;100066.94;;;10.56;69.94
76847;BME280;65813;49.546;8.644;2023-04-24T20:27:15;100079.88;;;10.39;71.46
76847;BME280;65813;49.546;8.644;2023-04-24T20:31:15;100067.69;;;10.47;71.21
76847;BME280;65813;49.546;8.644;2023-04-24T20:35:16;100071.03;;;10.38;72.00
76847;BME280;65813;49.546;8.644;2023-04-24T20:39:16;100071.28;;;10.35;72.12
76847;BME280;65813;49.546;8.644;2023-04-24T20:43:17;100071.00;;;10.16;72.55
76847;BME280;65813;49.546;8.644;2023-04-24T20:47:17;100069.00;;;10.07;73.23
76847;BME280;65813;49.546;8.644;2023-04-24T20:51:17;100062.22;;;10.27;72.78
76847;BME280;65813;49.546;8.644;2023-04-24T20:55:18;100067.44;;;10.04;73.29
76847;BME280;65813;49.546;8.644;2023-04-24T20:59:19;100054.22;;;9.92;73.79
76847;BME280;65813;49.546;8.644;2023-04-24T21:03:19;100053.75;;;9.98;73.61
76847;BME280;65813;49.546;8.644;2023-04-24T21:07:20;100058.97;;;9.99;73.09
76847;BME280;65813;49.546;8.644;2023-04-24T21:11:20;100050.94;;;9.88;72.81
